Tropical Cyclones
[Index]
Main Index Home Page Stock Weather Photos Extreme Storms Discussion Storm News and Storm Chasing Reports Tropical Cyclones / Hurricanes / Typhoons Weather Data and Links Wild Fires / Bushfires Weather Observation Techniques Weather Picture Catalogue Tornado Pictures and Reports Stock Video Footage and DVDs for sale
Season 2000-2001 Tropical Cyclone ABIGAIL Track Map
Season 2000-2001 Summaries: [BoM-AU] [JTWC-AU] [JTWC-SIO] [JTWC-SPAC] [JTWC-SH]
<<- Previous TC | BoM 2000-2001 Season | Next TC ->>

click for intensity scale information  Lat/long Grid: Show Hide

 Date Labels: Show Hide

Bureau of Meteorology Tropical Cyclone Data

Name: ABIGAIL
Number: 848 / 200001_06

23 Feb 2001 00:00 UTC to 08 Mar 2001 00:00 UTC

    date/time    lat    long    hPa   cat  kts
2001-02-23 00   15.5   154.3    998         30          
2001-02-23 06   16.1   152.6    998         30          
2001-02-23 12   16.5   150.6    996         30          
2001-02-23 18   16.6   148.5    996         30          
2001-02-24 00   16.6   146.1    992    1    40          
2001-02-24 06   16.6   144.5    996         30          
2001-02-24 12   16.7   143.6    996         20          
2001-02-24 18   16.6   142.3    996         20          
2001-02-25 00   16.5   141.0    996         30          
2001-02-25 06   16.4   140.8    994    1    30          
2001-02-25 12   15.8   140.2    994    1    35          
2001-02-25 18   15.8   140.0    990    1    45          
2001-02-26 00   15.9   139.7    986    1    50          
2001-02-26 06   16.3   139.4    975    2    60          
2001-02-26 12   16.6   138.5    970    3    65          
2001-02-26 18   16.7   137.8    975    2    60          
2001-02-27 00   16.9   136.9    990    1    40          
2001-02-27 06   17.2   136.0    992    1    30          
2001-02-27 12   18.0   135.5    992    1    30          
2001-02-28 00   18.0   134.0    992    1    30          
2001-02-28 12   16.5   132.0    992    1    25          
2001-03-01 00   17.5   130.5    998         25          
2001-03-01 12   17.5   128.5    995    1    25          
2001-03-02 00   18.5   127.0    995    1    25          
2001-03-02 12   19.0   126.0    994    1    25          
2001-03-03 00   19.5   124.5    992    1    25          
2001-03-03 12   20.0   124.5    993    1    25          
2001-03-04 00   20.5   124.4    994    1    25          
2001-03-04 12   21.5   124.3    994    1    20          
2001-03-05 00   22.5   124.0    993    1    20          
2001-03-05 12   23.0   125.0    995    1    20          
2001-03-06 00   24.5   127.0    996         20          
2001-03-06 12   25.0   126.5    996         20          
2001-03-07 00   25.5   126.0   1000         20          
2001-03-07 12   25.5   125.5   1002         20          
2001-03-08 00   26.5   124.5   1004         20          
Winds are 10-min average.

Tropical cyclone tracks developed by Michael Bath using data from the Bureau of Meteorology and Google Maps.


[Australian Severe Weather index] [Copyright Notice] [Email Contacts] [Search This Site] [Privacy Policy]
Document: tropical_cyclone_abigail.htm Updated: 29 June 2017